Terminal Aerodrome Forecast
Issued by NWS

Home | Current Version | Previous Version | Text Only | Print | Product List | Glossary On
Versions: 1 2 3 4 5 6 7 8 9 10 11 12 13 14 15 16 17 18 19 20 21 22 23 24 25
000
FTUS41 KBTV 131133
TAFSLK
TAF
KSLK 131133Z 1312/1412 28011KT 4SM -SN BR OVC015
     FM131400 28013G25KT P6SM OVC030
     FM132300 27015G25KT P6SM BKN100
     FM140400 27011KT P6SM SCT150=

USA.gov is the U.S. government's official web portal to all federal, state and local government web resources and services.